Accueil
METAR-TAF:

METAR-TAF

Aéroports :

Hagåtña, Guam, États-Unis

Aéroport international Antonio-B.-Won-Pat de Guam

latitude: 13-29N, longitude: 144-48E, altitude: 91 m

Observation

Le bulletin a été fait il y a 24 minutes, à 08:54 UTC
Vent 9 kt de est
Température 29°C
Humidité 79%
Pression 1012 hPa
Visibilité: 16.1 km
Quelques nuages à une hauteur de 2000 ft

METAR: PGUM 260854Z 09009KT 10SM FEW020 29/25 A2987 RMK AO2 SLP106 T02890250 53008 $

Heure: 19:18 (09:18 UTC)

Prévision

Le bulletin a été fait il y a 3 heures et 58 minutes, à 05:20 UTC
Prévision valable du 26 à 06 UTC au 27 à 12 UTC
Vent 11 kt de est
Visibilité: 10 km
Nuages épars à une hauteur de 2500 ft
averses à proximité

TAF: PGUM 260520Z 2606/2712 09011KT P6SM VCSH SCT025

Observations et prévisions météorologiques de plus de 4000 aéroports (messages METAR et TAF).

Les stations disponibles sont représentées par des disques jaunes et rouges sur la carte.

Passer la souris dessus pour voir le nom de la station.

Cliquer dessus pour voir les observations et prévisions météorologiques.

Pour changer de carte: cliquez sur les boutons verts avec une croix noire pour zoomer, sur le bouton vert avec un tiret pour effectuer un zoom arrière, ou sur les flèches vertes pour les cartes adjacentes.


METAR-TAF: